Time;durP1;ratioP1;P1;durP2;ratioP2;P2;SDS_P1;SDS_P2;PMS_P1;PMS_P2;Temp;Humidity;BMP_temperature;BMP_pressure;BME280_temperature;BME280_humidity;BME280_pressure;Samples;Min_cycle;Max_cycle;Signal;HPM_P1;HPM_P2
2023/04/17 00:00:39;;;;;;;17.90;15.30;;;8.50;99.90;;;;;;4867137;29;20198;-78
2023/04/17 00:03:06;;;;;;;17.77;14.80;;;8.60;99.90;;;;;;4866431;29;20209;-77
2023/04/17 00:05:32;;;;;;;18.37;14.37;;;8.50;99.90;;;;;;4873619;29;20625;-77
2023/04/17 00:07:59;;;;;;;22.00;18.10;;;8.50;99.90;;;;;;4866139;29;20275;-77
2023/04/17 00:10:27;;;;;;;18.93;16.27;;;8.50;99.90;;;;;;4865357;29;20642;-77
2023/04/17 00:12:54;;;;;;;20.30;18.07;;;8.50;99.90;;;;;;4867228;29;20205;-77
2023/04/17 00:15:21;;;;;;;22.97;18.97;;;8.50;99.90;;;;;;4866038;29;20657;-77
2023/04/17 00:17:48;;;;;;;22.50;20.10;;;8.50;99.90;;;;;;4866894;29;20254;-78
2023/04/17 00:20:15;;;;;;;20.90;18.90;;;8.50;99.90;;;;;;4867385;29;20262;-77
2023/04/17 00:22:42;;;;;;;21.10;19.10;;;8.50;99.90;;;;;;4865831;29;20210;-79
2023/04/17 00:25:11;;;;;;;20.97;18.87;;;8.50;99.90;;;;;;4866263;29;20206;-77
2023/04/17 00:27:39;;;;;;;22.13;19.87;;;8.50;99.90;;;;;;4869331;29;20285;-78
2023/04/17 00:30:08;;;;;;;24.63;22.10;;;8.50;99.90;;;;;;4881598;29;20209;-77
2023/04/17 00:32:34;;;;;;;17.70;15.17;;;8.50;99.90;;;;;;4879807;29;20201;-77
2023/04/17 00:35:02;;;;;;;24.97;22.67;;;8.40;99.90;;;;;;4884047;29;20233;-77
2023/04/17 00:37:29;;;;;;;22.33;19.97;;;8.40;99.90;;;;;;4875717;29;20233;-78
2023/04/17 00:39:55;;;;;;;19.00;16.33;;;8.40;99.90;;;;;;4869201;29;20206;-78
2023/04/17 00:42:23;;;;;;;16.97;14.37;;;8.40;99.90;;;;;;4871782;29;20286;-78
2023/04/17 00:44:51;;;;;;;22.67;20.37;;;8.50;99.90;;;;;;4870027;29;20579;-77
2023/04/17 00:47:21;;;;;;;22.70;19.90;;;8.40;99.90;;;;;;4869399;29;20304;-77
2023/04/17 00:49:49;;;;;;;20.97;18.77;;;8.40;99.90;;;;;;4870204;29;20270;-77
2023/04/17 00:52:24;;;;;;;21.17;16.80;;;8.40;99.90;;;;;;4871030;29;20205;-77
2023/04/17 00:54:51;;;;;;;19.97;16.53;;;8.40;99.90;;;;;;4873927;29;20413;-77
2023/04/17 00:57:18;;;;;;;17.00;14.20;;;8.40;99.90;;;;;;4873324;29;20614;-78
2023/04/17 00:59:45;;;;;;;17.13;14.23;;;8.50;99.90;;;;;;4869565;29;20282;-77
2023/04/17 01:02:15;;;;;;;21.00;16.53;;;8.50;99.90;;;;;;4884117;29;20213;-77
2023/04/17 01:04:42;;;;;;;20.77;17.57;;;8.40;99.90;;;;;;4875244;29;20214;-78
2023/04/17 01:07:09;;;;;;;18.93;15.77;;;8.40;99.90;;;;;;4869767;29;20314;-78
2023/04/17 01:09:37;;;;;;;20.77;18.37;;;8.40;99.90;;;;;;4869709;29;20753;-78
2023/04/17 01:12:18;;;;;;;17.87;14.33;;;8.40;99.90;;;;;;4869683;29;20213;-77
2023/04/17 01:14:45;;;;;;;16.97;12.87;;;8.50;99.90;;;;;;4871580;29;20209;-77
2023/04/17 01:17:14;;;;;;;20.03;14.67;;;8.50;99.90;;;;;;4871024;29;20708;-77
2023/04/17 01:19:41;;;;;;;19.27;15.23;;;8.50;99.90;;;;;;4870285;29;20198;-78
2023/04/17 01:22:08;;;;;;;22.10;19.80;;;8.50;99.90;;;;;;4877063;29;20205;-77
2023/04/17 01:24:36;;;;;;;18.97;15.70;;;8.50;99.90;;;;;;4870073;29;20206;-77
2023/04/17 01:27:03;;;;;;;18.80;16.77;;;8.40;99.90;;;;;;4870093;29;20222;-79
2023/04/17 01:29:30;;;;;;;18.80;16.80;;;8.50;99.90;;;;;;4868763;29;20212;-78
2023/04/17 01:31:58;;;;;;;21.17;17.17;;;8.50;99.90;;;;;;4869134;29;20202;-78
2023/04/17 01:34:25;;;;;;;21.80;18.47;;;8.50;99.90;;;;;;4869253;29;20241;-78
2023/04/17 01:36:52;;;;;;;20.57;15.53;;;8.50;99.90;;;;;;4869199;29;20234;-78
2023/04/17 01:39:19;;;;;;;22.03;17.50;;;8.50;99.90;;;;;;4868555;29;20206;-77
2023/04/17 01:41:47;;;;;;;18.77;16.87;;;8.50;99.90;;;;;;4869494;29;20238;-77
2023/04/17 01:44:14;;;;;;;19.93;17.90;;;8.50;99.90;;;;;;4869478;29;20217;-78
2023/04/17 01:46:41;;;;;;;18.47;15.03;;;8.40;99.90;;;;;;4868644;29;20218;-77
2023/04/17 01:49:08;;;;;;;16.83;14.40;;;8.40;99.90;;;;;;4869546;29;20205;-77
2023/04/17 01:51:35;;;;;;;18.87;15.63;;;8.40;99.90;;;;;;4869651;29;20206;-78
2023/04/17 01:54:02;;;;;;;19.40;15.83;;;8.40;99.90;;;;;;4869249;29;20210;-78
2023/04/17 01:56:29;;;;;;;21.40;18.37;;;8.40;99.90;;;;;;4868833;29;20225;-77
2023/04/17 01:58:58;;;;;;;17.47;14.43;;;8.40;99.90;;;;;;4868810;29;20202;-78
2023/04/17 02:01:24;;;;;;;24.67;19.07;;;8.40;99.90;;;;;;4868440;29;20210;-77
2023/04/17 02:03:51;;;;;;;18.27;15.70;;;8.40;99.90;;;;;;4870111;29;20238;-78
2023/04/17 02:06:18;;;;;;;23.40;21.00;;;8.40;99.90;;;;;;4871351;29;20295;-79
2023/04/17 02:08:45;;;;;;;24.33;21.93;;;8.40;99.90;;;;;;4871355;29;20220;-77
2023/04/17 02:11:14;;;;;;;19.37;16.87;;;8.30;99.90;;;;;;4872175;29;20288;-80
2023/04/17 02:13:41;;;;;;;19.97;17.83;;;8.30;99.90;;;;;;4871273;29;20673;-78
2023/04/17 02:16:11;;;;;;;17.17;14.50;;;8.30;99.90;;;;;;4872351;29;20226;-79
2023/04/17 02:18:38;;;;;;;17.47;14.97;;;8.30;99.90;;;;;;4870574;29;20320;-78
2023/04/17 02:21:05;;;;;;;19.67;15.77;;;8.30;99.90;;;;;;4871667;29;20205;-79
2023/04/17 02:23:35;;;;;;;20.03;15.53;;;8.30;99.90;;;;;;4871548;29;20209;-79
2023/04/17 02:26:04;;;;;;;19.13;15.57;;;8.30;99.90;;;;;;4870229;29;20236;-77
2023/04/17 02:28:31;;;;;;;16.83;14.43;;;8.30;99.90;;;;;;4872382;29;20205;-79
2023/04/17 02:31:05;;;;;;;18.90;16.27;;;8.30;99.90;;;;;;4878723;29;20217;-79
2023/04/17 02:33:33;;;;;;;23.87;21.37;;;8.30;99.90;;;;;;4870844;29;20209;-81
2023/04/17 02:36:00;;;;;;;18.53;15.53;;;8.30;99.90;;;;;;4873353;29;20316;-77
2023/04/17 02:38:36;;;;;;;20.60;16.27;;;8.30;99.90;;;;;;4867245;29;20695;-78
2023/04/17 02:41:04;;;;;;;20.87;16.77;;;8.30;99.90;;;;;;4867093;29;20214;-78
2023/04/17 02:43:32;;;;;;;19.30;17.23;;;8.30;99.90;;;;;;4863567;29;20428;-78
2023/04/17 02:46:00;;;;;;;18.73;16.73;;;8.30;99.90;;;;;;4864900;29;20209;-77
2023/04/17 02:48:27;;;;;;;21.73;18.80;;;8.30;99.90;;;;;;4863682;29;20213;-77
2023/04/17 02:50:55;;;;;;;20.87;16.07;;;8.30;99.90;;;;;;4862642;29;20552;-80
2023/04/17 02:53:23;;;;;;;21.37;16.87;;;8.30;99.90;;;;;;4875505;29;20211;-80
2023/04/17 02:55:50;;;;;;;22.30;17.17;;;8.30;99.90;;;;;;4875385;29;20449;-82
2023/04/17 02:58:20;;;;;;;22.43;19.97;;;8.30;99.90;;;;;;4866553;29;20288;-83
2023/04/17 03:00:47;;;;;;;17.13;15.03;;;8.20;99.90;;;;;;4866816;29;20205;-83
2023/04/17 03:03:17;;;;;;;22.13;18.47;;;8.30;99.90;;;;;;4865714;29;20209;-83
2023/04/17 03:05:44;;;;;;;20.60;18.27;;;8.30;99.90;;;;;;4876027;29;20201;-83
2023/04/17 03:08:12;;;;;;;25.53;23.13;;;8.30;99.90;;;;;;4869358;29;20238;-84
2023/04/17 03:10:47;;;;;;;18.70;16.73;;;8.30;99.90;;;;;;4871703;29;20229;-85
2023/04/17 03:13:14;;;;;;;20.03;16.03;;;8.30;99.90;;;;;;4874286;29;20294;-84
2023/04/17 03:15:41;;;;;;;21.10;17.53;;;8.20;99.90;;;;;;4881488;29;20243;-84
2023/04/17 03:18:08;;;;;;;22.47;17.43;;;8.20;99.90;;;;;;4886991;29;20312;-83
2023/04/17 03:20:35;;;;;;;19.57;16.53;;;8.30;99.90;;;;;;4879417;29;20206;-81
2023/04/17 03:23:02;;;;;;;24.83;19.93;;;8.20;99.90;;;;;;4860293;29;20202;-80
2023/04/17 03:25:30;;;;;;;22.10;16.87;;;8.20;99.90;;;;;;4860060;29;20227;-80
2023/04/17 03:27:57;;;;;;;24.70;19.57;;;8.30;99.90;;;;;;4868244;29;20226;-81
2023/04/17 03:30:30;;;;;;;21.93;17.83;;;8.20;99.90;;;;;;4869635;29;20236;-82
2023/04/17 03:33:00;;;;;;;24.17;19.80;;;8.20;99.90;;;;;;4873190;29;20241;-82
2023/04/17 03:35:30;;;;;;;21.10;18.87;;;8.20;99.90;;;;;;4871936;29;20658;-82
2023/04/17 03:37:56;;;;;;;20.60;17.90;;;8.20;99.90;;;;;;4870678;29;20222;-81
2023/04/17 03:40:24;;;;;;;20.70;18.20;;;8.20;99.90;;;;;;4877744;29;20201;-81
2023/04/17 03:42:52;;;;;;;21.53;19.30;;;8.20;99.90;;;;;;4864842;29;20230;-79
2023/04/17 03:45:19;;;;;;;22.83;20.53;;;8.20;99.90;;;;;;4870089;29;20202;-79
2023/04/17 03:47:46;;;;;;;27.00;24.10;;;8.20;99.90;;;;;;4865094;29;20268;-80
2023/04/17 03:50:14;;;;;;;19.13;16.40;;;8.20;99.90;;;;;;4877083;29;20214;-79
2023/04/17 03:52:48;;;;;;;27.50;24.60;;;8.20;99.90;;;;;;4889286;29;20269;-79
2023/04/17 03:55:16;;;;;;;18.10;14.77;;;8.20;99.90;;;;;;4872924;29;20216;-79
2023/04/17 03:57:44;;;;;;;26.67;20.50;;;8.20;99.90;;;;;;4861894;29;20700;-79
2023/04/17 04:00:15;;;;;;;19.67;17.07;;;8.20;99.90;;;;;;4868012;29;20564;-79
2023/04/17 04:02:52;;;;;;;24.10;19.40;;;8.20;99.90;;;;;;4867092;29;20205;-78
2023/04/17 04:05:23;;;;;;;26.60;22.40;;;8.20;99.90;;;;;;4864702;29;20611;-79
2023/04/17 04:07:50;;;;;;;21.73;19.07;;;8.20;99.90;;;;;;4880720;29;20662;-79
2023/04/17 04:10:25;;;;;;;21.77;18.83;;;8.20;99.90;;;;;;4858307;29;20215;-82
2023/04/17 04:12:52;;;;;;;24.03;20.23;;;8.20;99.90;;;;;;4868797;29;20209;-78
2023/04/17 04:15:21;;;;;;;31.03;28.10;;;8.30;99.90;;;;;;4858434;29;20701;-76
2023/04/17 04:17:53;;;;;;;22.47;20.03;;;8.20;99.90;;;;;;4859860;29;20226;-76
2023/04/17 04:20:21;;;;;;;28.87;26.17;;;8.20;99.90;;;;;;4874195;29;20217;-77
2023/04/17 04:22:52;;;;;;;31.67;28.87;;;8.20;99.90;;;;;;4858835;29;20296;-77
2023/04/17 04:25:20;;;;;;;35.17;32.17;;;8.20;99.90;;;;;;4868300;29;20212;-77
2023/04/17 04:27:55;;;;;;;27.47;24.77;;;8.20;99.90;;;;;;4874653;29;20217;-77
2023/04/17 04:30:26;;;;;;;20.97;17.13;;;8.20;99.90;;;;;;4873629;29;20236;-77
2023/04/17 04:33:07;;;;;;;22.90;18.97;;;8.20;99.90;;;;;;4875512;29;20232;-78
2023/04/17 04:35:34;;;;;;;23.50;18.87;;;8.20;99.90;;;;;;4871904;29;20686;-78
2023/04/17 04:38:01;;;;;;;20.80;16.17;;;8.20;99.90;;;;;;4878183;29;20287;-77
2023/04/17 04:40:34;;;;;;;20.03;16.03;;;8.20;99.90;;;;;;4881419;29;20255;-78
2023/04/17 04:43:01;;;;;;;23.97;17.33;;;8.20;99.90;;;;;;4877772;29;20220;-79
2023/04/17 04:45:37;;;;;;;20.93;16.70;;;8.20;99.90;;;;;;4878639;29;20201;-77
2023/04/17 04:48:04;;;;;;;21.27;17.10;;;8.20;99.90;;;;;;4874924;29;20237;-78
2023/04/17 04:50:31;;;;;;;22.87;16.60;;;8.20;99.90;;;;;;4874737;29;20193;-78
2023/04/17 04:52:58;;;;;;;25.23;18.73;;;8.20;99.90;;;;;;4877244;29;20207;-78
2023/04/17 04:55:37;;;;;;;23.07;18.37;;;8.20;99.90;;;;;;4876565;29;20311;-78
2023/04/17 04:58:05;;;;;;;22.63;17.93;;;8.10;99.90;;;;;;4872608;29;20221;-77
2023/04/17 05:00:33;;;;;;;20.63;16.67;;;8.10;99.90;;;;;;4874532;29;20401;-77
2023/04/17 05:03:02;;;;;;;19.70;16.87;;;8.10;99.90;;;;;;4865348;29;20201;-82
2023/04/17 05:05:30;;;;;;;23.50;17.80;;;8.20;99.90;;;;;;4896459;29;20201;-80
2023/04/17 05:07:58;;;;;;;23.73;17.93;;;8.20;99.90;;;;;;4862753;29;20652;-80
2023/04/17 05:10:29;;;;;;;19.53;15.93;;;8.20;99.90;;;;;;4870412;29;20763;-80
2023/04/17 05:13:00;;;;;;;22.17;17.80;;;8.20;99.90;;;;;;4870894;29;20206;-80
2023/04/17 05:15:27;;;;;;;22.70;17.27;;;8.20;99.90;;;;;;4863131;29;20618;-79
2023/04/17 05:17:54;;;;;;;22.40;18.83;;;8.20;99.90;;;;;;4862635;29;20233;-80
2023/04/17 05:20:25;;;;;;;23.00;18.73;;;8.20;99.90;;;;;;4863147;29;20262;-82
2023/04/17 05:22:55;;;;;;;20.50;17.90;;;8.20;99.90;;;;;;4864216;29;20297;-78
2023/04/17 05:25:23;;;;;;;22.20;18.93;;;8.20;99.90;;;;;;4867989;29;20210;-81
2023/04/17 05:27:50;;;;;;;22.27;19.50;;;8.30;99.90;;;;;;4872417;29;20268;-79
2023/04/17 05:30:18;;;;;;;20.37;16.77;;;8.30;99.90;;;;;;4865111;29;20305;-80
2023/04/17 05:32:48;;;;;;;21.57;18.47;;;8.30;99.90;;;;;;4867929;29;20210;-78
2023/04/17 05:35:33;;;;;;;22.97;19.23;;;8.30;99.90;;;;;;4882787;29;20775;-81
2023/04/17 05:38:00;;;;;;;21.57;18.60;;;8.30;99.90;;;;;;4881399;29;20224;-80
2023/04/17 05:40:27;;;;;;;21.13;18.90;;;8.40;99.90;;;;;;4875119;29;20201;-79
2023/04/17 05:42:54;;;;;;;23.23;19.10;;;8.40;99.90;;;;;;4879314;29;20204;-80
2023/04/17 05:45:21;;;;;;;21.47;19.27;;;8.40;99.90;;;;;;4876775;29;20202;-80
2023/04/17 05:47:48;;;;;;;21.40;19.10;;;8.40;99.90;;;;;;4880435;29;20233;-80
2023/04/17 05:50:15;;;;;;;21.40;19.13;;;8.40;99.90;;;;;;4878115;29;20302;-81
2023/04/17 05:52:46;;;;;;;23.33;19.63;;;8.40;99.90;;;;;;4880645;29;20197;-81
2023/04/17 05:55:58;;;;;;;22.30;19.90;;;8.40;99.90;;;;;;4882595;29;20202;-81
2023/04/17 06:19:09;;;;;;;24.33;21.60;;;8.60;99.90;;;;;;4821214;29;20858;-82
2023/04/17 06:21:36;;;;;;;20.57;17.63;;;8.60;99.90;;;;;;4813642;29;20298;-80
2023/04/17 06:24:02;;;;;;;19.53;16.67;;;8.60;99.90;;;;;;4898536;29;20271;-80
2023/04/17 06:26:29;;;;;;;22.53;19.03;;;8.60;99.90;;;;;;4907491;29;20723;-80
2023/04/17 06:28:56;;;;;;;22.90;18.70;;;8.60;99.90;;;;;;4903951;29;20230;-80
2023/04/17 06:31:25;;;;;;;22.87;19.60;;;8.70;99.90;;;;;;4907443;29;20200;-76
2023/04/17 06:33:52;;;;;;;19.57;17.07;;;8.80;99.90;;;;;;4922571;29;20706;-78
2023/04/17 06:36:25;;;;;;;21.43;18.57;;;8.90;99.90;;;;;;4922428;29;20242;-79
2023/04/17 06:38:57;;;;;;;23.90;18.73;;;8.90;99.90;;;;;;4924011;29;20295;-80
2023/04/17 06:41:24;;;;;;;20.60;17.60;;;8.90;99.90;;;;;;4920850;29;20200;-76
2023/04/17 06:43:50;;;;;;;20.83;16.90;;;8.90;99.90;;;;;;4919581;29;20500;-77
2023/04/17 06:46:17;;;;;;;19.13;16.30;;;8.90;99.90;;;;;;4921694;29;20220;-81
2023/04/17 06:48:44;;;;;;;20.63;16.93;;;9.00;99.90;;;;;;4914148;29;20200;-82
2023/04/17 06:51:11;;;;;;;20.40;16.30;;;9.00;99.90;;;;;;4918890;29;20271;-76
2023/04/17 06:53:39;;;;;;;20.50;16.53;;;9.00;99.90;;;;;;4921882;29;20227;-78
2023/04/17 06:56:06;;;;;;;17.00;15.20;;;9.00;99.90;;;;;;4923450;29;20239;-76
2023/04/17 06:58:40;;;;;;;26.90;24.20;;;9.00;99.90;;;;;;4922101;29;20203;-77
2023/04/17 07:01:07;;;;;;;19.17;15.27;;;9.00;99.90;;;;;;4927709;29;20206;-78
2023/04/17 07:03:34;;;;;;;19.80;15.63;;;9.00;99.90;;;;;;4925743;29;20260;-84
2023/04/17 07:06:01;;;;;;;17.53;14.97;;;9.00;99.90;;;;;;4916547;29;20228;-81
2023/04/17 07:08:27;;;;;;;22.47;20.17;;;9.00;99.90;;;;;;4921830;29;20204;-85
2023/04/17 07:10:56;;;;;;;20.43;18.20;;;9.00;99.90;;;;;;4918143;29;20211;-81
2023/04/17 07:13:23;;;;;;;17.10;14.57;;;8.90;99.90;;;;;;4920432;29;20216;-82
2023/04/17 07:15:52;;;;;;;17.57;14.80;;;8.90;99.90;;;;;;4926137;29;20239;-82
2023/04/17 07:18:18;;;;;;;16.33;14.57;;;8.90;99.90;;;;;;4926905;29;20604;-83
2023/04/17 07:20:45;;;;;;;18.17;14.50;;;8.90;99.90;;;;;;4928862;29;20219;-81
2023/04/17 07:23:12;;;;;;;19.97;15.73;;;8.90;99.90;;;;;;4927706;29;20222;-81
2023/04/17 07:25:39;;;;;;;17.60;15.13;;;8.90;99.90;;;;;;4926724;29;20204;-80
2023/04/17 07:28:07;;;;;;;18.67;15.57;;;8.80;99.90;;;;;;4921451;29;20231;-81
2023/04/17 07:30:34;;;;;;;20.83;14.83;;;8.80;99.90;;;;;;4919165;29;20203;-81
2023/04/17 08:01:30;;;;;;;16.80;13.83;;;9.30;99.90;;;;;;4909548;29;20295;-81
2023/04/17 08:07:38;;;;;;;22.77;20.77;;;9.20;99.90;;;;;;4892825;29;20731;-83
2023/04/17 08:10:06;;;;;;;18.43;14.30;;;9.30;99.90;;;;;;4900549;29;20193;-81
2023/04/17 08:12:33;;;;;;;19.37;17.47;;;9.30;99.90;;;;;;4900352;29;20201;-82
2023/04/17 08:15:00;;;;;;;17.83;14.13;;;9.30;99.90;;;;;;4894757;29;20640;-82
2023/04/17 08:17:28;;;;;;;14.33;12.57;;;9.30;99.90;;;;;;4896081;29;20244;-80
2023/04/17 08:19:57;;;;;;;15.30;13.47;;;9.30;99.90;;;;;;4892048;29;20583;-82
2023/04/17 08:22:24;;;;;;;13.13;11.63;;;9.30;99.90;;;;;;4893697;29;20237;-82
2023/04/17 08:24:53;;;;;;;19.07;17.27;;;9.40;99.90;;;;;;4894723;29;20260;-83
2023/04/17 08:27:20;;;;;;;15.83;13.63;;;9.30;99.90;;;;;;4912792;29;20227;-83
2023/04/17 08:29:47;;;;;;;19.40;17.53;;;9.30;99.90;;;;;;4903260;29;20289;-82
2023/04/17 08:32:14;;;;;;;18.07;15.97;;;9.20;99.90;;;;;;4903223;29;20202;-84
2023/04/17 08:34:44;;;;;;;15.27;13.67;;;9.30;99.90;;;;;;4904088;29;20197;-78
2023/04/17 08:37:11;;;;;;;14.40;12.90;;;9.30;99.90;;;;;;4901662;29;20224;-83
2023/04/17 08:39:38;;;;;;;18.87;17.07;;;9.50;99.90;;;;;;4906135;29;20199;-81
2023/04/17 08:42:09;;;;;;;18.17;16.47;;;9.60;99.90;;;;;;4904492;29;20228;-79
2023/04/17 08:44:36;;;;;;;15.10;13.60;;;9.60;99.90;;;;;;4903498;29;20205;-79
2023/04/17 08:47:04;;;;;;;15.97;14.37;;;9.50;99.90;;;;;;4901112;29;20546;-79
2023/04/17 08:49:34;;;;;;;21.07;19.23;;;9.50;99.90;;;;;;4898675;29;20222;-80
2023/04/17 08:52:04;;;;;;;17.80;16.23;;;9.40;99.90;;;;;;4902095;29;20204;-79
2023/04/17 08:54:32;;;;;;;13.73;11.67;;;9.30;99.90;;;;;;4892642;29;20209;-80
2023/04/17 08:57:02;;;;;;;13.87;12.57;;;9.30;99.90;;;;;;4904953;29;20224;-79
2023/04/17 08:59:29;;;;;;;21.33;19.63;;;9.40;99.90;;;;;;4917950;29;20208;-80
2023/04/17 09:02:01;;;;;;;18.87;17.27;;;9.40;99.90;;;;;;4911809;29;20208;-79
2023/04/17 09:04:39;;;;;;;16.90;15.40;;;9.40;99.90;;;;;;4903553;29;20269;-80
2023/04/17 09:07:08;;;;;;;18.20;16.53;;;9.50;99.90;;;;;;4907751;29;20224;-80
2023/04/17 09:09:49;;;;;;;12.80;11.47;;;9.50;99.90;;;;;;4908763;29;20200;-82
2023/04/17 09:12:16;;;;;;;11.40;10.37;;;9.50;99.90;;;;;;4902615;29;20226;-79
2023/04/17 09:14:44;;;;;;;13.13;11.93;;;9.50;99.90;;;;;;4902890;29;20208;-78
2023/04/17 09:17:11;;;;;;;14.43;13.13;;;9.60;99.90;;;;;;4907614;29;20248;-78
2023/04/17 09:19:37;;;;;;;12.23;9.90;;;9.60;99.90;;;;;;4909454;29;20201;-79
2023/04/17 09:22:19;;;;;;;11.27;10.13;;;9.50;99.90;;;;;;4910797;29;20676;-78
2023/04/17 09:24:47;;;;;;;13.33;12.03;;;9.50;99.90;;;;;;4906163;29;20201;-79
2023/04/17 09:27:21;;;;;;;12.53;11.43;;;9.50;99.90;;;;;;4906893;29;20635;-79
2023/04/17 09:29:59;;;;;;;13.77;12.40;;;9.60;99.90;;;;;;4900269;29;20212;-79
2023/04/17 09:32:27;;;;;;;16.40;14.90;;;9.70;99.90;;;;;;4901868;29;20260;-80
2023/04/17 09:34:55;;;;;;;9.93;8.70;;;9.70;99.90;;;;;;4897108;29;20224;-79
2023/04/17 09:37:24;;;;;;;10.90;9.77;;;9.70;99.90;;;;;;4905227;29;20224;-79
2023/04/17 09:39:59;;;;;;;12.13;10.97;;;9.60;99.90;;;;;;4905383;29;20597;-79
2023/04/17 09:42:26;;;;;;;10.87;9.77;;;9.60;99.90;;;;;;4910904;29;20211;-78
2023/04/17 09:44:54;;;;;;;12.10;11.00;;;9.60;99.90;;;;;;4900883;29;20261;-79
2023/04/17 09:47:22;;;;;;;18.93;17.53;;;9.70;99.90;;;;;;4907055;29;20221;-78
2023/04/17 09:49:52;;;;;;;13.87;12.67;;;9.80;99.90;;;;;;4907053;29;20216;-78
2023/04/17 09:52:22;;;;;;;11.30;9.97;;;9.70;99.90;;;;;;4904985;29;20483;-78
2023/04/17 09:54:52;;;;;;;9.73;8.83;;;9.60;99.90;;;;;;4902752;29;20245;-78
2023/04/17 09:57:19;;;;;;;13.50;12.20;;;9.70;99.90;;;;;;4910173;29;20225;-81
2023/04/17 09:59:58;;;;;;;10.23;9.23;;;9.60;99.90;;;;;;4894047;29;20201;-85
2023/04/17 10:02:51;;;;;;;13.17;11.87;;;9.60;99.90;;;;;;4902944;29;20236;-84
2023/04/17 10:05:19;;;;;;;20.30;18.60;;;9.70;99.90;;;;;;4893859;29;20205;-81
2023/04/17 10:07:46;;;;;;;11.73;10.63;;;9.80;99.90;;;;;;4900680;29;20244;-80
2023/04/17 10:10:22;;;;;;;15.10;13.93;;;9.80;99.90;;;;;;4898846;29;20206;-80
2023/04/17 10:12:50;;;;;;;12.73;10.73;;;9.90;99.90;;;;;;4890896;29;20208;-80
2023/04/17 10:15:19;;;;;;;11.20;10.20;;;9.90;99.90;;;;;;4900079;29;20664;-79
2023/04/17 10:17:48;;;;;;;10.33;9.27;;;10.00;99.90;;;;;;4900391;29;20228;-80
2023/04/17 10:20:35;;;;;;;10.50;9.23;;;10.10;99.90;;;;;;4902011;29;20566;-81
2023/04/17 10:23:30;;;;;;;13.33;12.33;;;10.20;99.90;;;;;;4895919;29;20265;-79
2023/04/17 10:26:36;;;;;;;11.13;10.23;;;10.40;99.90;;;;;;4901797;29;20554;-80
2023/04/17 10:29:05;;;;;;;10.00;8.47;;;10.60;99.90;;;;;;4896259;29;20735;-81
2023/04/17 10:32:24;;;;;;;8.80;8.00;;;10.70;99.90;;;;;;4898219;29;20210;-83
2023/04/17 10:34:52;;;;;;;9.47;8.63;;;10.90;99.90;;;;;;4903158;29;20233;-80
2023/04/17 10:37:21;;;;;;;9.57;7.63;;;11.10;99.90;;;;;;4896207;29;20229;-79
2023/04/17 10:39:50;;;;;;;7.80;6.90;;;11.30;99.90;;;;;;4895271;29;20211;-79
2023/04/17 10:42:19;;;;;;;7.70;6.93;;;11.70;99.90;;;;;;4901687;29;20204;-81
2023/04/17 10:44:49;;;;;;;7.77;6.97;;;12.00;99.90;;;;;;4902909;29;20208;-80
2023/04/17 10:47:20;;;;;;;8.10;7.30;;;12.10;99.90;;;;;;4901076;29;20686;-79
2023/04/17 10:49:54;;;;;;;8.50;7.00;;;12.10;99.90;;;;;;4902428;29;20204;-79
2023/04/17 10:52:42;;;;;;;8.57;7.07;;;12.00;99.90;;;;;;4901221;29;20209;-80
2023/04/17 10:55:12;;;;;;;8.63;7.83;;;11.60;99.90;;;;;;4901958;29;20215;-78
2023/04/17 10:57:58;;;;;;;7.83;7.03;;;11.50;99.90;;;;;;4900222;29;20245;-79
2023/04/17 11:00:32;;;;;;;6.87;6.17;;;11.50;99.90;;;;;;4895985;29;20208;-80
2023/04/17 11:03:00;;;;;;;7.47;6.77;;;11.60;99.90;;;;;;4903835;29;20207;-81
2023/04/17 11:05:27;;;;;;;8.67;7.17;;;11.60;99.90;;;;;;4903687;29;20327;-80
2023/04/17 11:07:53;;;;;;;7.97;7.17;;;11.70;99.90;;;;;;4902249;29;20215;-78
2023/04/17 11:10:21;;;;;;;8.77;7.50;;;11.80;99.90;;;;;;4902581;29;20586;-79
2023/04/17 11:12:52;;;;;;;7.57;6.80;;;11.80;99.90;;;;;;4902854;29;20305;-80
2023/04/17 11:15:26;;;;;;;7.07;6.37;;;11.80;99.90;;;;;;4896382;29;20200;-81
2023/04/17 11:17:55;;;;;;;7.20;6.53;;;11.70;99.90;;;;;;4905038;29;20596;-80
2023/04/17 11:20:23;;;;;;;7.03;6.33;;;11.70;99.90;;;;;;4905881;29;20256;-79
2023/04/17 11:22:50;;;;;;;6.30;5.70;;;11.80;99.90;;;;;;4906642;29;20201;-81
2023/04/17 11:25:22;;;;;;;6.13;5.53;;;12.10;99.90;;;;;;4897519;29;20676;-80
2023/04/17 11:27:54;;;;;;;6.27;5.67;;;12.30;99.90;;;;;;4904217;29;20276;-80
2023/04/17 11:30:29;;;;;;;7.17;6.47;;;12.40;99.90;;;;;;4904122;29;20623;-79
2023/04/17 11:32:59;;;;;;;6.77;6.17;;;12.40;99.90;;;;;;4905103;29;20312;-79
2023/04/17 11:35:31;;;;;;;6.13;5.60;;;12.60;99.90;;;;;;4905570;29;20200;-80
2023/04/17 11:38:05;;;;;;;5.97;5.47;;;12.70;99.90;;;;;;4895085;29;20233;-85
2023/04/17 11:40:32;;;;;;;6.07;5.47;;;13.00;99.90;;;;;;4898722;29;20208;-77
2023/04/17 11:43:05;;;;;;;6.83;6.20;;;12.80;99.90;;;;;;4897387;29;20208;-78
2023/04/17 11:45:33;;;;;;;6.73;6.13;;;12.60;99.90;;;;;;4894007;29;20209;-76
2023/04/17 11:48:01;;;;;;;6.63;6.03;;;12.50;99.90;;;;;;4895180;29;20227;-76
2023/04/17 11:50:28;;;;;;;6.37;5.77;;;12.40;99.90;;;;;;4888411;29;20204;-77
2023/04/17 11:52:57;;;;;;;6.63;6.00;;;12.60;99.90;;;;;;4888748;29;20211;-76
2023/04/17 11:55:29;;;;;;;6.77;6.10;;;12.80;99.90;;;;;;4894849;29;20676;-75
2023/04/17 11:57:56;;;;;;;7.53;6.83;;;12.80;99.90;;;;;;4895950;29;20229;-76
2023/04/17 12:00:27;;;;;;;7.07;6.47;;;12.90;99.90;;;;;;4896789;29;20232;-76
2023/04/17 12:02:55;;;;;;;7.30;6.60;;;12.80;99.90;;;;;;4896248;29;20627;-75
2023/04/17 12:05:25;;;;;;;7.60;6.90;;;12.90;99.90;;;;;;4896511;29;20194;-76
2023/04/17 12:08:03;;;;;;;7.27;6.63;;;12.90;99.90;;;;;;4898176;29;20227;-79
2023/04/17 12:10:48;;;;;;;7.23;6.57;;;12.80;99.90;;;;;;4901352;29;20201;-78
2023/04/17 12:13:14;;;;;;;7.67;6.53;;;12.80;99.90;;;;;;4898806;29;20209;-78
2023/04/17 12:15:41;;;;;;;6.93;6.23;;;12.70;99.90;;;;;;4888881;29;20261;-76
2023/04/17 12:18:08;;;;;;;7.40;6.70;;;12.70;99.90;;;;;;4901808;29;20244;-79
2023/04/17 12:20:37;;;;;;;8.00;7.20;;;12.60;99.90;;;;;;4899796;29;20193;-79
2023/04/17 12:23:05;;;;;;;7.83;7.13;;;12.80;99.90;;;;;;4905686;29;20216;-78
2023/04/17 12:25:32;;;;;;;7.67;6.87;;;13.00;99.90;;;;;;4904887;29;20193;-78
2023/04/17 12:28:03;;;;;;;7.40;5.77;;;12.90;99.90;;;;;;4903540;29;20236;-78
2023/04/17 12:30:32;;;;;;;6.20;5.60;;;13.00;99.90;;;;;;4904183;29;20204;-78
2023/04/17 12:32:59;;;;;;;6.43;5.83;;;13.10;99.90;;;;;;4902680;29;20248;-79
2023/04/17 12:35:27;;;;;;;6.50;5.43;;;13.10;99.90;;;;;;4902116;29;20216;-79
2023/04/17 12:37:55;;;;;;;7.23;6.53;;;13.20;99.90;;;;;;4903785;29;20658;-79
2023/04/17 12:40:23;;;;;;;7.20;6.10;;;13.10;99.90;;;;;;4898496;29;20233;-79
2023/04/17 12:42:50;;;;;;;5.93;5.33;;;13.20;99.90;;;;;;4894872;29;20638;-79
2023/04/17 12:45:17;;;;;;;5.67;5.00;;;13.40;99.90;;;;;;4889123;29;20198;-78
2023/04/17 12:47:44;;;;;;;7.40;6.70;;;13.90;99.90;;;;;;4894529;29;20217;-81
2023/04/17 12:50:12;;;;;;;6.73;5.93;;;14.20;99.90;;;;;;4893719;29;20234;-80
2023/04/17 12:52:39;;;;;;;7.17;6.10;;;14.30;99.90;;;;;;4896545;29;20747;-79
2023/04/17 12:55:09;;;;;;;6.77;5.97;;;14.10;99.90;;;;;;4905228;29;20200;-79
2023/04/17 12:57:39;;;;;;;6.83;6.13;;;14.00;99.90;;;;;;4897407;29;20214;-79
2023/04/17 13:00:08;;;;;;;6.20;5.60;;;13.90;99.90;;;;;;4906171;29;20300;-81
2023/04/17 13:02:35;;;;;;;6.13;5.53;;;13.80;99.90;;;;;;4912774;29;20202;-80
2023/04/17 13:05:02;;;;;;;6.50;5.30;;;13.90;99.90;;;;;;4892241;29;20582;-79
2023/04/17 13:07:30;;;;;;;6.90;5.33;;;14.00;99.90;;;;;;4887705;29;20219;-81
2023/04/17 13:09:57;;;;;;;5.80;5.30;;;13.90;99.90;;;;;;4903668;29;20203;-80
2023/04/17 13:12:30;;;;;;;5.70;5.20;;;14.10;99.90;;;;;;4887061;29;20255;-81
2023/04/17 13:14:57;;;;;;;5.43;4.93;;;14.40;99.90;;;;;;4888146;29;20217;-81
2023/04/17 13:17:24;;;;;;;5.00;4.50;;;14.40;99.90;;;;;;4889767;29;20650;-80
2023/04/17 13:19:51;;;;;;;3.60;3.30;;;14.30;99.90;;;;;;4893091;29;20228;-81
2023/04/17 13:22:19;;;;;;;4.10;3.70;;;13.80;99.90;;;;;;4900912;29;20262;-80
2023/04/17 13:24:46;;;;;;;5.00;3.73;;;13.40;99.90;;;;;;4900320;29;20202;-79
2023/04/17 13:27:13;;;;;;;4.27;3.27;;;13.10;99.90;;;;;;4902219;29;20225;-78
2023/04/17 13:29:41;;;;;;;4.13;3.83;;;12.70;99.90;;;;;;4898933;29;20224;-79
2023/04/17 13:32:09;;;;;;;4.90;4.50;;;12.60;99.90;;;;;;4897455;29;20206;-78
2023/04/17 13:34:35;;;;;;;5.33;5.03;;;12.60;99.90;;;;;;4899437;29;20683;-78
2023/04/17 13:37:02;;;;;;;4.60;4.30;;;12.50;99.90;;;;;;4896079;29;20244;-80
2023/04/17 13:39:29;;;;;;;4.77;4.47;;;12.40;99.90;;;;;;4888400;29;20228;-80
2023/04/17 13:41:56;;;;;;;5.57;5.07;;;12.30;99.90;;;;;;4892560;29;20216;-75
2023/04/17 13:44:24;;;;;;;4.70;4.30;;;12.30;99.90;;;;;;4895705;29;20682;-75